Herd, Oklahoma
Current Conditions -  °F | °C
As of 10:20 PM on Wednesday 17 Dec 2014 (Local Time) from KBVO Reporting Station
Haze Haze  
Wind Chill: 32°   Ceiling: 300
Heat Index: 32°   Visibility: 1.5mi
Dew Point: 32°   Wind: 3mph
Humidity: 100%   Direction: 10°N
Pressure: 30.24"   Gusts: NA
Location:  36.8094°N, 96.3005°W
Report Text: KBVO 180420Z AUTO 01003KT 1 1/2SM UP BR OVC003 00/00 A3024 RMK AO2 UPB16 P0000 T00000000
Loading
Personal Weather Stations






























Interactive Weather Map New forecast layout! Learn more

10-Day Weather Forecast

Advertisements
Track Severe Weather on mobile